Time;durP1;ratioP1;P1;durP2;ratioP2;P2;SDS_P1;SDS_P2;PMS_P1;PMS_P2;Temp;Humidity;BMP_temperature;BMP_pressure;BME280_temperature;BME280_humidity;BME280_pressure;Samples;Min_cycle;Max_cycle;Signal;HPM_P1;HPM_P2
2022/10/19 00:01:59;;;;;;;10.70;2.38;;;;;;;;;;5036880;28;20021;-50
2022/10/19 00:04:25;;;;;;;9.30;1.73;;;14.00;99.90;;;;;;5037165;28;20026;-49
2022/10/19 00:06:50;;;;;;;11.15;1.75;;;14.50;99.90;;;;;;5037072;28;20022;-49
2022/10/19 00:09:18;;;;;;;17.48;2.10;;;13.50;99.90;;;;;;5036905;28;20073;-46
2022/10/19 00:11:47;;;;;;;7.13;1.35;;;13.50;99.90;;;;;;5036950;28;20076;-51
2022/10/19 00:14:15;;;;;;;7.37;1.90;;;15.60;99.90;;;;;;5037215;28;20022;-54
2022/10/19 00:16:42;;;;;;;11.18;1.70;;;13.40;99.90;;;;;;5037077;28;20100;-49
2022/10/19 00:19:13;;;;;;;10.68;2.00;;;14.40;99.90;;;;;;5036985;28;20478;-49
2022/10/19 00:21:39;;;;;;;11.32;1.90;;;;;;;;;;5037028;28;20104;-50
2022/10/19 00:24:06;;;;;;;11.48;2.50;;;13.70;99.90;;;;;;5036700;28;20025;-45
2022/10/19 00:26:32;;;;;;;9.80;1.77;;;;;;;;;;5036918;28;20064;-50
2022/10/19 00:28:58;;;;;;;11.48;2.20;;;;;;;;;;5036859;28;20491;-46
2022/10/19 00:31:25;;;;;;;8.10;2.05;;;;;;;;;;5037059;28;20024;-46
2022/10/19 00:33:51;;;;;;;10.75;1.70;;;;;;;;;;5036884;28;20124;-45
2022/10/19 00:36:37;;;;;;;12.50;1.80;;;13.30;99.90;;;;;;5033792;28;20024;-48
2022/10/19 00:39:05;;;;;;;9.23;1.70;;;13.20;99.90;;;;;;5033603;28;20033;-46
2022/10/19 00:41:32;;;;;;;9.30;2.08;;;13.30;99.90;;;;;;5033821;28;20507;-46
2022/10/19 00:44:01;;;;;;;7.55;1.83;;;14.10;99.90;;;;;;5034074;28;20037;-50
2022/10/19 00:46:30;;;;;;;15.05;1.73;;;13.20;99.90;;;;;;5033760;28;20061;-50
2022/10/19 00:49:20;;;;;;;11.02;2.03;;;15.50;99.90;;;;;;5033791;28;20026;-47
2022/10/19 00:51:49;;;;;;;8.20;1.80;;;14.90;99.90;;;;;;5033571;28;20029;-52
2022/10/19 00:54:16;;;;;;;14.38;2.50;;;13.70;99.90;;;;;;5033274;28;20476;-49
2022/10/19 00:56:43;;;;;;;18.77;2.17;;;13.20;99.90;;;;;;5033334;28;20052;-47
2022/10/19 00:59:11;;;;;;;11.13;1.80;;;13.20;99.90;;;;;;5033383;28;20021;-55
2022/10/19 01:01:37;;;;;;;17.10;2.20;;;;;;;;;;5033216;28;20081;-48
2022/10/19 01:04:03;;;;;;;17.27;2.03;;;14.20;99.90;;;;;;5033351;28;20624;-51
2022/10/19 01:06:30;;;;;;;17.00;6.18;;;14.10;99.90;;;;;;5033294;28;20029;-46
2022/10/19 01:08:56;;;;;;;8.88;2.17;;;;;;;;;;5032974;28;20059;-46
2022/10/19 01:11:43;;;;;;;12.80;1.67;;;13.80;99.90;;;;;;5033366;28;20030;-46
2022/10/19 01:14:30;;;;;;;11.80;2.00;;;12.90;99.90;;;;;;5032915;28;20488;-53
2022/10/19 01:17:13;;;;;;;8.15;1.80;;;13.70;99.90;;;;;;5033146;28;20022;-52
2022/10/19 01:19:50;;;;;;;9.88;2.03;;;13.10;99.90;;;;;;5033097;28;20029;-47
2022/10/19 01:22:40;;;;;;;12.73;1.70;;;14.90;99.90;;;;;;5032804;28;20100;-46
2022/10/19 01:25:37;;;;;;;12.48;2.53;;;13.50;99.90;;;;;;5032761;28;20041;-47
2022/10/19 01:28:48;;;;;;;13.43;1.98;;;13.40;99.90;;;;;;5032988;28;20021;-46
2022/10/19 01:31:40;;;;;;;13.20;2.22;;;13.00;99.90;;;;;;5032931;28;20021;-48
2022/10/19 01:34:22;;;;;;;12.40;2.08;;;13.10;99.90;;;;;;5011591;28;20424;-50
2022/10/19 01:37:13;;;;;;;9.18;1.73;;;13.50;99.90;;;;;;5019385;28;20041;-53
2022/10/19 01:39:46;;;;;;;11.20;2.03;;;13.70;99.90;;;;;;5032374;28;20121;-51
2022/10/19 01:42:31;;;;;;;6.22;1.55;;;14.20;99.90;;;;;;5032670;28;20420;-51
2022/10/19 01:45:42;;;;;;;11.95;1.30;;;12.50;99.90;;;;;;5014916;28;20041;-47
2022/10/19 01:48:08;;;;;;;8.85;1.73;;;;;;;;;;4950752;28;20074;-48
2022/10/19 01:50:50;;;;;;;6.22;1.40;;;13.60;99.90;;;;;;4952202;29;20214;-49
2022/10/19 01:53:18;;;;;;;7.07;1.75;;;13.70;99.90;;;;;;4997524;28;20050;-49
2022/10/19 01:55:46;;;;;;;9.32;1.75;;;13.60;99.90;;;;;;5032327;28;20029;-46
2022/10/19 01:58:16;;;;;;;11.50;1.80;;;11.00;99.90;;;;;;5032071;28;20071;-49
2022/10/19 02:00:45;;;;;;;13.15;1.80;;;13.00;99.90;;;;;;5032159;28;20035;-47
2022/10/19 02:03:11;;;;;;;9.57;1.92;;;13.40;99.90;;;;;;5032116;28;20105;-48
2022/10/19 02:05:39;;;;;;;12.38;1.95;;;14.00;99.90;;;;;;5032001;28;20044;-48
2022/10/19 02:08:13;;;;;;;10.10;2.10;;;13.80;99.90;;;;;;5014402;28;20025;-47
2022/10/19 02:10:42;;;;;;;10.27;2.15;;;13.00;99.90;;;;;;5031732;28;20026;-47
2022/10/19 02:13:10;;;;;;;10.15;1.80;;;13.00;99.90;;;;;;5031929;28;20120;-53
2022/10/19 02:15:39;;;;;;;12.45;2.08;;;13.50;99.90;;;;;;5031984;28;20030;-50
2022/10/19 02:18:06;;;;;;;9.00;1.30;;;14.10;99.90;;;;;;5032064;28;20549;-47
2022/10/19 02:20:32;;;;;;;11.93;3.10;;;;;;;;;;5030381;28;20270;-47
2022/10/19 02:22:57;;;;;;;14.00;2.10;;;13.20;99.90;;;;;;5031708;28;20080;-47
2022/10/19 02:25:23;;;;;;;12.27;1.60;;;13.40;99.90;;;;;;5030875;28;20049;-47
2022/10/19 02:27:49;;;;;;;9.70;2.00;;;13.70;99.90;;;;;;5031558;28;20078;-51
2022/10/19 02:30:16;;;;;;;16.88;4.63;;;12.90;99.90;;;;;;5031602;28;20384;-49
2022/10/19 02:32:43;;;;;;;12.77;3.15;;;13.40;99.90;;;;;;5031899;28;20048;-50
2022/10/19 02:35:10;;;;;;;8.30;2.22;;;13.30;99.90;;;;;;5031516;28;20087;-50
2022/10/19 02:37:36;;;;;;;10.10;1.88;;;13.50;99.90;;;;;;5031367;28;20037;-48
2022/10/19 02:40:03;;;;;;;10.25;1.92;;;12.90;99.90;;;;;;5031232;28;20025;-46
2022/10/19 02:42:36;;;;;;;8.80;2.10;;;14.00;99.90;;;;;;5031460;28;20090;-50
2022/10/19 02:45:22;;;;;;;11.93;2.72;;;15.00;99.90;;;;;;5031335;28;20025;-49
2022/10/19 02:47:53;;;;;;;13.15;2.72;;;13.10;99.90;;;;;;5030934;28;20041;-55
2022/10/19 02:50:20;;;;;;;14.20;2.30;;;13.80;99.90;;;;;;5031213;28;20025;-52
2022/10/19 02:52:46;;;;;;;15.25;2.45;;;;;;;;;;5013562;28;20120;-51
2022/10/19 02:55:11;;;;;;;12.00;3.13;;;12.80;99.90;;;;;;5030998;28;20447;-51
2022/10/19 02:57:37;;;;;;;11.07;2.58;;;;;;;;;;5031404;28;20504;-51
2022/10/19 03:00:05;;;;;;;18.83;4.97;;;13.80;99.90;;;;;;5030666;28;20021;-51
2022/10/19 03:02:31;;;;;;;16.80;4.15;;;13.30;99.90;;;;;;5030986;28;20033;-53
2022/10/19 03:04:57;;;;;;;15.07;3.50;;;13.40;99.90;;;;;;5030969;28;20017;-48
2022/10/19 03:07:23;;;;;;;10.85;3.20;;;;;;;;;;5030911;28;20060;-49
2022/10/19 03:09:49;;;;;;;13.80;2.75;;;;;;;;;;5030753;28;20132;-48
2022/10/19 03:12:15;;;;;;;11.93;3.03;;;14.70;99.90;;;;;;5030780;28;20453;-50
2022/10/19 03:14:42;;;;;;;11.50;3.33;;;12.80;99.90;;;;;;5031089;28;20037;-49
2022/10/19 03:17:07;;;;;;;14.32;3.42;;;12.50;99.90;;;;;;5030815;28;20064;-48
2022/10/19 03:19:34;;;;;;;12.43;3.35;;;12.60;99.90;;;;;;5030997;28;20054;-55
2022/10/19 03:22:00;;;;;;;15.50;4.00;;;13.20;99.90;;;;;;5031114;28;20052;-48
2022/10/19 03:24:25;;;;;;;11.48;2.97;;;14.90;99.90;;;;;;5030485;28;20459;-49
2022/10/19 03:26:51;;;;;;;14.52;3.97;;;;;;;;;;5030950;28;20025;-47
2022/10/19 03:29:17;;;;;;;13.70;3.50;;;14.80;99.90;;;;;;5030750;28;20388;-49
2022/10/19 03:31:43;;;;;;;11.77;3.40;;;13.00;99.90;;;;;;5030656;28;20077;-46
2022/10/19 03:34:08;;;;;;;13.40;3.67;;;13.20;99.90;;;;;;5030755;28;20052;-48
2022/10/19 03:36:36;;;;;;;17.08;3.67;;;14.60;99.90;;;;;;5030796;28;20022;-46
2022/10/19 03:39:09;;;;;;;13.07;3.30;;;14.20;99.90;;;;;;5030664;28;20040;-46
2022/10/19 03:41:36;;;;;;;19.52;4.38;;;12.80;99.90;;;;;;5030761;28;20071;-47
2022/10/19 03:44:02;;;;;;;17.70;3.65;;;12.80;99.90;;;;;;5030886;28;20026;-45
2022/10/19 03:46:28;;;;;;;9.52;3.40;;;13.00;99.90;;;;;;5030817;28;20041;-46
2022/10/19 03:48:54;;;;;;;17.23;4.53;;;;;;;;;;5031015;28;20018;-47
2022/10/19 03:51:23;;;;;;;13.48;4.18;;;13.40;99.90;;;;;;5031047;28;20025;-45
2022/10/19 03:54:03;;;;;;;10.48;3.88;;;12.90;99.90;;;;;;5030370;28;20477;-53
2022/10/19 03:56:30;;;;;;;15.45;3.92;;;15.00;99.90;;;;;;5012730;28;20409;-52
2022/10/19 03:58:57;;;;;;;16.75;4.03;;;13.00;99.90;;;;;;5030609;28;20026;-50
2022/10/19 04:01:36;;;;;;;14.65;3.85;;;13.30;99.90;;;;;;5030545;28;20036;-45
2022/10/19 04:04:05;;;;;;;16.30;4.15;;;13.10;99.90;;;;;;5030549;28;20030;-49
2022/10/19 04:06:34;;;;;;;12.10;3.40;;;13.80;99.90;;;;;;5030748;28;20034;-46
2022/10/19 04:09:00;;;;;;;14.35;4.13;;;;;;;;;;5030398;28;20026;-54
2022/10/19 04:11:28;;;;;;;17.83;4.75;;;13.20;99.90;;;;;;5032315;28;20423;-49
2022/10/19 04:13:55;;;;;;;14.77;4.13;;;12.60;99.90;;;;;;5034419;28;20351;-52
2022/10/19 04:16:22;;;;;;;22.52;4.13;;;14.20;99.90;;;;;;5034180;28;20441;-48
2022/10/19 04:18:49;;;;;;;15.77;4.30;;;;;;;;;;5034194;28;20033;-50
2022/10/19 04:21:35;;;;;;;13.52;3.63;;;13.30;99.90;;;;;;5034139;28;20021;-49
2022/10/19 04:24:07;;;;;;;16.13;4.20;;;10.60;99.90;;;;;;5033680;28;20068;-48
2022/10/19 04:26:37;;;;;;;16.25;4.55;;;13.00;99.90;;;;;;5033919;28;20037;-52
2022/10/19 04:29:02;;;;;;;20.67;4.88;;;13.60;99.90;;;;;;5033993;28;20717;-53
2022/10/19 04:31:29;;;;;;;14.32;4.00;;;;;;;;;;5033712;28;20022;-46
2022/10/19 04:33:55;;;;;;;23.55;4.93;;;14.60;99.90;;;;;;5033971;28;20037;-51
2022/10/19 04:36:22;;;;;;;15.95;5.50;;;12.80;99.90;;;;;;5033704;28;20017;-54
2022/10/19 04:38:48;;;;;;;16.70;5.15;;;;;;;;;;5033778;28;20034;-47
2022/10/19 04:41:16;;;;;;;14.45;4.78;;;10.80;99.90;;;;;;5016097;28;20538;-47
2022/10/19 04:43:44;;;;;;;17.98;5.18;;;14.50;99.90;;;;;;5033720;28;20017;-48
2022/10/19 04:46:29;;;;;;;22.90;5.20;;;13.80;99.90;;;;;;5033478;28;20508;-54
2022/10/19 04:48:56;;;;;;;20.42;5.28;;;12.90;99.90;;;;;;5033481;28;20029;-52
2022/10/19 04:51:22;;;;;;;17.13;5.90;;;14.70;99.90;;;;;;5033386;28;20025;-56
2022/10/19 04:53:48;;;;;;;17.05;5.38;;;12.60;99.90;;;;;;5033411;28;20036;-50
2022/10/19 04:56:22;;;;;;;12.20;5.35;;;14.60;99.90;;;;;;5033566;28;20025;-51
2022/10/19 04:58:48;;;;;;;14.80;5.50;;;;;;;;;;5033418;28;20337;-49
2022/10/19 05:01:19;;;;;;;17.45;6.00;;;13.90;99.90;;;;;;5033372;28;20021;-56
2022/10/19 05:03:45;;;;;;;14.82;5.53;;;14.70;99.90;;;;;;5033489;28;20090;-48
2022/10/19 05:06:12;;;;;;;21.00;5.85;;;13.40;99.90;;;;;;5033449;28;20128;-49
2022/10/19 05:08:38;;;;;;;23.92;7.07;;;10.70;99.90;;;;;;5032984;28;20025;-48
2022/10/19 05:11:06;;;;;;;15.82;6.25;;;13.00;99.90;;;;;;5033263;28;20072;-48
2022/10/19 05:13:32;;;;;;;18.25;6.82;;;14.90;99.90;;;;;;5032907;28;20471;-46
2022/10/19 05:15:59;;;;;;;21.33;6.25;;;13.00;99.90;;;;;;5032909;28;20108;-49
2022/10/19 05:18:25;;;;;;;20.85;6.68;;;12.80;99.90;;;;;;5033126;28;20476;-49
2022/10/19 05:20:58;;;;;;;19.15;5.90;;;15.10;99.90;;;;;;5032969;28;20029;-46
2022/10/19 05:23:24;;;;;;;20.05;5.78;;;15.10;99.90;;;;;;5032619;28;20116;-47
2022/10/19 05:26:15;;;;;;;14.90;5.25;;;14.10;99.90;;;;;;5032669;28;20072;-52
2022/10/19 05:28:41;;;;;;;16.95;5.43;;;12.90;99.90;;;;;;5032754;28;20396;-46
2022/10/19 05:31:13;;;;;;;17.65;5.60;;;9.80;99.90;;;;;;5032956;28;20024;-49
2022/10/19 05:33:40;;;;;;;17.33;5.65;;;15.50;99.90;;;;;;5032785;28;20061;-52
2022/10/19 05:36:20;;;;;;;14.65;5.18;;;13.10;99.90;;;;;;5015314;28;20037;-52
2022/10/19 05:38:48;;;;;;;22.13;6.65;;;12.90;99.90;;;;;;5032511;28;20030;-48
2022/10/19 05:41:15;;;;;;;17.23;6.00;;;;;;;;;;5032559;28;20485;-53
2022/10/19 05:43:41;;;;;;;13.55;4.85;;;10.10;99.90;;;;;;5032774;28;20027;-50
2022/10/19 05:46:10;;;;;;;13.15;4.88;;;13.00;99.90;;;;;;5032583;28;20096;-50
2022/10/19 05:48:36;;;;;;;12.32;4.82;;;13.00;99.90;;;;;;5014880;28;20044;-50
2022/10/19 05:51:04;;;;;;;22.30;6.28;;;13.00;99.90;;;;;;5032502;28;20029;-49
2022/10/19 05:53:31;;;;;;;18.60;5.03;;;13.20;99.90;;;;;;5031895;28;20186;-49
2022/10/19 05:55:56;;;;;;;17.17;4.97;;;11.40;99.90;;;;;;5032340;28;20075;-46
2022/10/19 05:58:23;;;;;;;18.02;4.75;;;15.00;99.90;;;;;;5032241;28;20034;-51
2022/10/19 06:00:56;;;;;;;17.08;4.60;;;13.20;99.90;;;;;;5032450;28;20040;-46
2022/10/19 06:03:23;;;;;;;11.52;4.13;;;13.50;99.90;;;;;;5032264;28;20170;-46
2022/10/19 06:05:49;;;;;;;15.95;4.63;;;10.00;99.90;;;;;;5031992;28;20037;-52
2022/10/19 06:08:16;;;;;;;13.52;4.35;;;13.30;99.90;;;;;;5032014;28;20026;-51
2022/10/19 06:10:42;;;;;;;16.38;4.45;;;13.80;99.90;;;;;;5032093;28;20503;-45
2022/10/19 06:13:08;;;;;;;11.27;4.00;;;14.20;99.90;;;;;;5031830;28;20034;-48
2022/10/19 06:15:35;;;;;;;18.88;5.13;;;15.50;99.90;;;;;;5031844;28;20143;-51
2022/10/19 06:18:03;;;;;;;15.00;4.63;;;13.30;99.90;;;;;;5031913;28;20483;-46
2022/10/19 06:20:29;;;;;;;14.82;4.80;;;13.70;99.90;;;;;;5032247;28;20522;-53
2022/10/19 06:22:55;;;;;;;13.93;4.88;;;13.50;99.90;;;;;;5031371;28;20068;-53
2022/10/19 06:25:21;;;;;;;13.15;4.32;;;;;;;;;;5031211;28;20068;-44
2022/10/19 06:27:46;;;;;;;10.98;4.20;;;14.10;99.90;;;;;;5031608;28;20106;-51
2022/10/19 06:30:12;;;;;;;17.13;5.35;;;13.50;99.90;;;;;;5031744;28;20079;-46
2022/10/19 06:32:38;;;;;;;12.15;4.38;;;13.90;99.90;;;;;;5013597;28;20119;-45
2022/10/19 06:35:04;;;;;;;10.43;3.88;;;13.10;99.90;;;;;;5031008;28;20017;-48
2022/10/19 06:37:29;;;;;;;18.23;5.15;;;14.60;99.90;;;;;;5031715;28;20030;-49
2022/10/19 06:39:55;;;;;;;16.38;4.60;;;;;;;;;;5031451;28;20021;-45
2022/10/19 06:42:21;;;;;;;11.70;4.15;;;;;;;;;;5031462;28;20033;-46
2022/10/19 06:44:47;;;;;;;20.40;4.60;;;;;;;;;;5031462;28;20075;-45
2022/10/19 06:47:13;;;;;;;9.35;3.75;;;;;;;;;;5031434;28;20512;-44
2022/10/19 06:49:39;;;;;;;11.45;4.13;;;;;;;;;;5031496;28;20029;-44
2022/10/19 06:52:06;;;;;;;14.52;4.15;;;;;;;;;;5031870;28;20033;-45
2022/10/19 06:54:32;;;;;;;18.48;4.85;;;;;;;;;;5031943;28;20083;-50
2022/10/19 06:56:59;;;;;;;15.88;4.43;;;;;;;;;;5031722;28;20060;-48
2022/10/19 06:59:25;;;;;;;15.60;4.07;;;;;;;;;;5031881;28;20021;-52
2022/10/19 07:01:51;;;;;;;15.43;4.32;;;;;;;;;;5031348;28;20028;-51
2022/10/19 07:04:17;;;;;;;13.13;3.65;;;;;;;;;;5031125;28;20052;-47
2022/10/19 07:06:43;;;;;;;17.90;4.28;;;;;;;;;;5030548;28;20078;-51
2022/10/19 07:09:09;;;;;;;10.98;4.40;;;;;;;;;;5030906;28;20086;-47
2022/10/19 07:11:35;;;;;;;14.48;4.70;;;;;;;;;;5030852;28;20033;-48
2022/10/19 07:14:01;;;;;;;15.43;4.68;;;;;;;;;;5030951;28;20034;-46
2022/10/19 07:16:27;;;;;;;16.10;4.53;;;14.90;99.90;;;;;;5030405;28;20480;-51
2022/10/19 07:18:53;;;;;;;16.23;4.45;;;;;;;;;;5029110;28;20025;-49
2022/10/19 07:21:20;;;;;;;20.92;6.47;;;15.70;99.90;;;;;;5030447;28;20079;-46
2022/10/19 07:23:47;;;;;;;16.17;5.60;;;;;;;;;;5030542;28;20097;-50
2022/10/19 07:26:26;;;;;;;17.20;5.57;;;14.40;99.90;;;;;;5029849;28;20076;-48
2022/10/19 07:28:52;;;;;;;17.45;5.63;;;;;;;;;;5030442;28;20091;-45
2022/10/19 07:31:22;;;;;;;19.02;5.88;;;13.80;99.90;;;;;;5030399;28;20052;-48
2022/10/19 07:34:06;;;;;;;13.45;5.13;;;13.90;99.90;;;;;;5030482;28;20111;-47
2022/10/19 07:36:34;;;;;;;19.70;6.20;;;14.00;99.90;;;;;;5030752;28;20048;-51
2022/10/19 07:39:00;;;;;;;15.90;5.35;;;;;;;;;;5030803;28;20030;-51
2022/10/19 07:41:26;;;;;;;18.70;5.88;;;;;;;;;;5030182;28;20018;-53
2022/10/19 07:43:53;;;;;;;16.40;5.75;;;;;;;;;;5029541;28;20045;-47
2022/10/19 07:46:21;;;;;;;19.08;5.43;;;15.20;99.90;;;;;;5033196;28;20104;-48
2022/10/19 07:48:47;;;;;;;20.35;5.88;;;;;;;;;;5033765;28;20549;-47
2022/10/19 07:51:15;;;;;;;15.18;5.28;;;14.80;99.90;;;;;;5033795;28;20036;-50
2022/10/19 07:53:41;;;;;;;13.00;5.05;;;14.50;99.90;;;;;;5032788;28;20072;-45
2022/10/19 07:56:11;;;;;;;18.67;6.20;;;15.50;99.90;;;;;;5033825;28;20025;-50
2022/10/19 07:58:38;;;;;;;17.10;5.75;;;14.90;99.90;;;;;;5033592;28;20029;-55
2022/10/19 08:01:06;;;;;;;13.30;5.40;;;14.80;99.90;;;;;;5033653;28;20484;-47
2022/10/19 08:03:33;;;;;;;17.50;5.47;;;15.70;99.90;;;;;;5033675;28;20025;-49
2022/10/19 08:06:00;;;;;;;13.02;5.75;;;18.10;99.90;;;;;;5033706;28;20044;-47
2022/10/19 08:08:26;;;;;;;17.35;5.80;;;;;;;;;;5026939;28;20542;-48
2022/10/19 08:10:52;;;;;;;20.58;6.05;;;;;;;;;;5029292;28;20033;-48
2022/10/19 08:13:18;;;;;;;18.63;5.78;;;;;;;;;;5023051;28;20025;-48
2022/10/19 08:15:44;;;;;;;15.38;5.97;;;15.80;99.90;;;;;;5025463;28;20476;-47
2022/10/19 08:18:10;;;;;;;17.75;6.90;;;14.50;99.90;;;;;;5020873;28;20032;-48
2022/10/19 08:20:36;;;;;;;15.65;5.82;;;;;;;;;;5021923;28;20029;-50
2022/10/19 08:23:02;;;;;;;15.27;5.70;;;;;;;;;;5025495;28;20022;-47
2022/10/19 08:25:28;;;;;;;14.55;5.93;;;15.00;99.90;;;;;;5032315;28;20042;-49
2022/10/19 08:27:53;;;;;;;14.73;6.00;;;11.60;99.90;;;;;;5030062;28;20025;-50
2022/10/19 08:30:19;;;;;;;15.30;5.55;;;;;;;;;;5033397;28;20025;-45
2022/10/19 08:32:45;;;;;;;12.25;5.35;;;14.40;99.90;;;;;;5020528;28;20405;-50
2022/10/19 08:35:11;;;;;;;16.17;5.78;;;;;;;;;;5029297;28;20113;-46
2022/10/19 08:37:37;;;;;;;14.02;5.60;;;;;;;;;;5032081;28;20029;-45
2022/10/19 08:40:03;;;;;;;14.98;5.47;;;15.40;99.90;;;;;;5030049;28;20021;-46
2022/10/19 08:42:58;;;;;;;20.88;6.43;;;15.50;99.90;;;;;;5032080;28;20018;-49
2022/10/19 08:45:36;;;;;;;23.77;7.28;;;15.50;99.90;;;;;;5020706;28;20396;-51
2022/10/19 08:48:02;;;;;;;26.13;6.20;;;;;;;;;;5032541;28;20088;-45
2022/10/19 08:50:41;;;;;;;33.60;7.60;;;17.70;99.90;;;;;;5033222;28;20045;-46
2022/10/19 08:53:21;;;;;;;28.00;7.07;;;15.70;99.90;;;;;;5014481;28;20025;-45
2022/10/19 08:56:02;;;;;;;19.25;6.38;;;15.50;99.90;;;;;;5022218;28;20036;-45
2022/10/19 08:58:39;;;;;;;29.33;7.03;;;15.90;99.90;;;;;;5032927;28;20029;-52
2022/10/19 09:01:12;;;;;;;14.10;6.13;;;16.30;99.90;;;;;;5032316;28;20030;-48
2022/10/19 09:03:41;;;;;;;19.80;5.70;;;18.70;99.90;;;;;;5031521;28;20048;-45
2022/10/19 09:06:18;;;;;;;17.75;5.68;;;16.70;99.90;;;;;;5030465;28;20029;-44
2022/10/19 09:08:44;;;;;;;20.65;5.75;;;17.40;99.90;;;;;;5030506;28;20097;-51
2022/10/19 09:11:11;;;;;;;51.00;9.02;;;17.60;99.90;;;;;;5030210;28;20112;-44
2022/10/19 09:13:44;;;;;;;21.20;6.38;;;20.20;99.90;;;;;;5031412;28;20034;-45
2022/10/19 09:16:16;;;;;;;17.55;5.65;;;18.70;99.90;;;;;;5020640;28;20729;-48
2022/10/19 09:18:42;;;;;;;14.57;5.03;;;;;;;;;;5024095;28;20099;-47
2022/10/19 09:21:40;;;;;;;12.55;4.65;;;18.80;99.90;;;;;;5031921;28;20501;-53
2022/10/19 09:24:27;;;;;;;13.27;5.05;;;20.50;99.90;;;;;;5032419;28;20053;-53
2022/10/19 09:26:57;;;;;;;14.63;4.95;;;23.80;99.90;;;;;;5032562;28;20446;-46
2022/10/19 09:29:42;;;;;;;12.95;4.43;;;21.70;99.90;;;;;;5029897;28;20021;-45
2022/10/19 09:32:15;;;;;;;13.18;4.95;;;21.90;99.90;;;;;;5031724;28;20147;-49
2022/10/19 09:34:53;;;;;;;16.27;4.72;;;23.10;99.90;;;;;;5031906;28;20064;-51
2022/10/19 09:37:20;;;;;;;13.98;4.60;;;23.10;99.90;;;;;;5031837;28;20075;-52
2022/10/19 09:39:46;;;;;;;13.18;4.68;;;23.40;99.80;;;;;;5024087;28;20030;-52
2022/10/19 09:42:35;;;;;;;14.00;4.60;;;25.10;99.90;;;;;;5031548;28;20032;-50
2022/10/19 09:45:21;;;;;;;10.52;4.40;;;;;;;;;;5025976;28;20052;-48
2022/10/19 09:47:47;;;;;;;13.82;4.65;;;24.00;98.70;;;;;;5023676;28;20519;-47
2022/10/19 09:50:22;;;;;;;14.55;4.70;;;22.20;99.50;;;;;;5009877;28;20026;-47
2022/10/19 09:53:14;;;;;;;15.13;4.43;;;22.80;99.80;;;;;;5032182;28;20118;-45
2022/10/19 09:55:47;;;;;;;12.07;4.45;;;20.50;99.90;;;;;;5032360;28;20475;-46
2022/10/19 09:58:12;;;;;;;15.95;4.75;;;22.30;99.90;;;;;;5024881;28;20029;-45
2022/10/19 10:00:49;;;;;;;11.15;4.68;;;21.70;99.90;;;;;;5032714;28;20025;-46
2022/10/19 10:03:27;;;;;;;11.93;4.28;;;24.20;99.90;;;;;;5023874;28;20388;-50
2022/10/19 10:06:01;;;;;;;11.77;3.93;;;22.60;99.00;;;;;;5032053;28;20032;-48
2022/10/19 10:08:30;;;;;;;13.55;4.30;;;21.30;98.80;;;;;;5031124;28;20091;-44
2022/10/19 10:10:58;;;;;;;;;;;22.60;99.30;;;;;;5031826;28;20075;-46
2022/10/19 10:13:26;;;;;;;11.53;3.60;;;25.30;95.70;;;;;;5030490;28;19913;-44
2022/10/19 10:15:58;;;;;;;10.70;3.97;;;25.30;95.90;;;;;;5031674;28;20032;-46
2022/10/19 10:18:25;;;;;;;14.57;3.83;;;25.30;93.90;;;;;;5031727;28;20536;-57
2022/10/19 10:21:09;;;;;;;9.68;3.92;;;25.20;93.50;;;;;;5031694;28;20113;-45
2022/10/19 10:23:36;;;;;;;13.00;4.05;;;;;;;;;;5031692;28;20472;-53
2022/10/19 10:26:04;;;;;;;7.90;3.70;;;23.30;94.50;;;;;;5031465;28;20056;-46
2022/10/19 10:28:30;;;;;;;11.55;3.47;;;23.20;95.40;;;;;;5031456;28;20080;-45
2022/10/19 10:31:03;;;;;;;12.98;3.88;;;22.10;94.60;;;;;;5031724;28;20033;-49
2022/10/19 10:33:31;;;;;;;10.98;4.55;;;23.40;95.40;;;;;;5029552;28;20098;-45
2022/10/19 10:36:04;;;;;;;10.50;3.63;;;23.90;96.50;;;;;;5021144;28;20029;-48
2022/10/19 10:38:41;;;;;;;10.13;4.20;;;23.90;96.00;;;;;;5028529;28;20037;-45
2022/10/19 10:41:16;;;;;;;12.73;3.95;;;21.60;96.10;;;;;;5030817;28;20063;-47
2022/10/19 10:44:16;;;;;;;14.15;4.22;;;24.10;96.90;;;;;;5012471;28;20030;-47
2022/10/19 10:46:54;;;;;;;10.60;3.88;;;21.40;98.10;;;;;;5004415;28;20038;-46
2022/10/19 10:49:25;;;;;;;9.88;3.80;;;21.20;99.90;;;;;;5027361;28;20358;-46
2022/10/19 10:51:55;;;;;;;12.60;4.45;;;21.40;99.90;;;;;;5030740;28;20048;-50
2022/10/19 10:54:22;;;;;;;15.35;5.25;;;20.90;99.90;;;;;;5030301;28;20488;-50
2022/10/19 10:57:11;;;;;;;14.90;4.60;;;21.20;99.90;;;;;;5030922;28;20041;-46
2022/10/19 10:59:57;;;;;;;11.35;4.30;;;20.10;99.90;;;;;;5030812;28;20060;-45
2022/10/19 11:02:41;;;;;;;16.65;4.75;;;19.70;99.90;;;;;;5030885;28;20025;-49
2022/10/19 11:05:30;;;;;;;13.43;4.25;;;17.60;99.90;;;;;;5030818;28;20489;-46
2022/10/19 11:08:14;;;;;;;9.93;4.18;;;18.90;99.90;;;;;;5023760;28;20036;-45
2022/10/19 11:10:50;;;;;;;10.95;4.65;;;17.00;99.90;;;;;;5031127;28;20025;-49
2022/10/19 11:13:29;;;;;;;17.30;4.68;;;21.30;99.90;;;;;;5030786;28;20455;-49
2022/10/19 11:16:12;;;;;;;11.05;4.20;;;20.50;99.90;;;;;;5022772;28;20018;-45
2022/10/19 11:18:47;;;;;;;11.07;4.28;;;20.10;99.90;;;;;;5021139;28;20492;-46
2022/10/19 11:21:28;;;;;;;11.65;3.85;;;18.00;99.90;;;;;;5030529;28;20408;-46
2022/10/19 11:24:11;;;;;;;11.30;4.00;;;21.60;99.90;;;;;;5030734;28;20026;-44
2022/10/19 11:26:48;;;;;;;11.00;3.83;;;21.10;99.90;;;;;;5030697;28;20034;-47
2022/10/19 11:29:29;;;;;;;13.68;4.53;;;20.30;99.90;;;;;;5030445;28;20064;-46
2022/10/19 11:31:55;;;;;;;24.45;10.18;;;21.30;99.90;;;;;;5030533;28;20025;-44
2022/10/19 11:34:36;;;;;;;12.30;6.93;;;21.90;99.90;;;;;;5031000;28;20035;-43
2022/10/19 11:37:02;;;;;;;10.38;3.72;;;21.40;99.90;;;;;;5030722;28;20022;-47
2022/10/19 11:39:39;;;;;;;14.07;4.35;;;21.30;99.90;;;;;;5030136;28;20037;-48
2022/10/19 11:42:14;;;;;;;13.10;3.75;;;22.10;99.90;;;;;;5030735;28;20483;-48
2022/10/19 11:44:43;;;;;;;11.70;3.78;;;21.60;99.90;;;;;;5030389;28;20037;-49
2022/10/19 11:47:17;;;;;;;12.95;4.30;;;20.40;99.90;;;;;;5030470;28;20032;-52
2022/10/19 11:49:58;;;;;;;7.43;3.70;;;18.40;99.90;;;;;;5030024;28;20072;-49
2022/10/19 11:52:46;;;;;;;11.68;3.60;;;20.20;99.90;;;;;;5030272;28;20481;-47
2022/10/19 11:55:33;;;;;;;12.13;3.65;;;19.80;99.90;;;;;;5028926;28;20415;-50
2022/10/19 11:58:11;;;;;;;8.40;4.05;;;19.80;99.90;;;;;;5030076;28;20025;-45
2022/10/19 12:00:59;;;;;;;12.57;3.70;;;21.50;99.90;;;;;;5030425;28;20030;-57
2022/10/19 12:03:45;;;;;;;14.60;4.05;;;22.20;99.90;;;;;;5030240;28;20017;-56
2022/10/19 12:06:37;;;;;;;10.10;3.95;;;22.60;98.70;;;;;;5030219;28;20033;-57
2022/10/19 12:09:03;;;;;;;13.75;3.67;;;;;;;;;;5018451;28;20026;-57
2022/10/19 12:11:47;;;;;;;11.23;3.95;;;25.00;94.80;;;;;;5030164;28;20060;-57
2022/10/19 12:14:19;;;;;;;8.43;3.85;;;24.50;94.10;;;;;;5012564;28;20021;-57
2022/10/19 12:16:49;;;;;;;12.77;4.20;;;23.90;94.50;;;;;;5029805;28;20072;-57
2022/10/19 12:19:23;;;;;;;10.43;3.80;;;23.30;95.40;;;;;;5030150;28;20021;-57
2022/10/19 12:21:52;;;;;;;10.40;3.53;;;23.80;96.70;;;;;;5029621;28;20471;-58
2022/10/19 12:24:22;;;;;;;8.17;3.93;;;22.80;96.70;;;;;;5027933;28;20133;-45
2022/10/19 12:26:49;;;;;;;9.73;3.17;;;22.70;97.70;;;;;;5030263;28;20075;-46
2022/10/19 12:29:24;;;;;;;12.80;3.92;;;19.50;96.90;;;;;;5029800;28;20028;-48
2022/10/19 12:31:52;;;;;;;11.48;3.22;;;22.50;99.40;;;;;;5015264;28;20049;-46
2022/10/19 12:34:45;;;;;;;7.35;3.38;;;20.90;99.20;;;;;;5031041;28;20041;-45
2022/10/19 12:37:29;;;;;;;9.73;3.38;;;21.30;99.90;;;;;;5030884;28;20071;-46
2022/10/19 12:40:09;;;;;;;10.55;3.95;;;20.70;99.90;;;;;;5031686;28;20101;-48
2022/10/19 12:42:50;;;;;;;10.43;3.97;;;17.80;99.90;;;;;;5029586;28;20026;-50
2022/10/19 12:45:40;;;;;;;17.45;4.40;;;20.50;99.90;;;;;;5032172;28;20392;-45
2022/10/19 12:48:09;;;;;;;10.43;3.25;;;20.40;99.90;;;;;;5031801;28;20029;-58
2022/10/19 12:50:47;;;;;;;13.48;4.28;;;19.80;99.90;;;;;;5033355;28;20045;-44
2022/10/19 12:53:37;;;;;;;12.18;3.08;;;20.30;99.90;;;;;;5033018;28;20029;-46
2022/10/19 12:56:02;;;;;;;;;;;19.80;99.90;;;;;;5033522;28;20515;-49
2022/10/19 12:58:35;;;;;;;8.45;2.88;;;19.70;99.90;;;;;;5033144;28;19905;-45
2022/10/19 13:01:04;;;;;;;14.85;3.88;;;20.10;99.90;;;;;;5033477;28;20499;-45
2022/10/19 13:03:33;;;;;;;9.48;3.50;;;22.00;99.90;;;;;;5029666;28;20100;-45
2022/10/19 13:06:05;;;;;;;8.65;3.05;;;22.60;99.90;;;;;;5032399;28;20026;-43
2022/10/19 13:08:44;;;;;;;8.40;3.88;;;20.00;99.90;;;;;;5031239;28;20095;-48
2022/10/19 13:11:14;;;;;;;12.63;3.72;;;20.00;99.90;;;;;;5031367;28;20377;-44
2022/10/19 13:13:56;;;;;;;12.38;4.00;;;20.00;99.90;;;;;;5031722;28;20708;-49
2022/10/19 13:16:27;;;;;;;12.68;3.58;;;19.80;99.90;;;;;;5027186;28;20047;-53
2022/10/19 13:19:02;;;;;;;8.48;3.67;;;17.20;99.90;;;;;;5029551;28;20025;-47
2022/10/19 13:21:57;;;;;;;11.07;3.65;;;17.60;99.90;;;;;;5030958;28;20021;-52